CYHU/YHU METAR and TAF weather

Enter ICAO airport designator
Station Type Date Time Source
CYHU METAR 2020/01/22 15:00 UTC NOAA

CYHU 221500Z AUTO 23013G19KT 9SM SCT210 M03/M08 A3030 RMK SLP264


Station Type Date Time Source
CYHU Decoded METAR 2020/01/22 15:00 UTC NOAA

Saint Hubert Airport , Canada (CYHU) 45-31N 073-25W
Jan 22, 2020 - 10:00 AM EST / 2020.01.22 1500 UTC
Wind: from the SW (230 degrees) at 15 MPH (13 KT) gusting to 22 MPH (19 KT):0
Visibility: 9 mile(s):0
Sky conditions: partly cloudy
Temperature: 26 F (-3 C)
Windchill: 14 F (-10 C):1
Dew Point: 17 F (-8 C)
Relative Humidity: 68%
Pressure (altimeter): 30.3 in. Hg (1026 hPa)
ob: CYHU 221500Z AUTO 23013G19KT 9SM SCT210 M03/M08 A3030 RMK SLP264
cycle: 15

Station Type Date Time Source
CYHU TAF 2020/01/22 13:48 UTC NOAA

TAF TAF
AMD CYHU 221344Z 2213/2312 23012G22KT P6SM FEW030 BKN250
BECMG 2220/2222 23012KT
FM230300 23012KT P6SM BKN200
FM231000 23010KT P6SM BKN025 OVC240
RMK FCST BASED ON AUTO OBS. NXT FCST BY 221800Z

Example: see airport list